Douglas, WY (82633)

3:44 PM MDT on September 01, 2015 (GMT -0600)
Converse County | | Change Station
CLOSE
Current Station
Airport
Location: Douglas,
Elevation: 4928 ft
Nearby Weather Stations
Active Advisory: Fire Weather Warning

Elev 4928 ft 42.80 °N, 105.38 °W | Updated 51 minutes ago

Clear
Clear
91 °F
Feels Like 91 °F
N
18
Wind Variable Wind from West
Gusts 24 mph

Today
High -- | Low -- °F
--% Chance of Precip.
Yesterday
High -- | Low -- °F
Precip. -- in
6:26 AM 7:36 PM
Waning Gibbous, 86% visible
Pressure 29.78 in
Visibility 10.0 miles
Clouds Clear
Dew Point 27 °F
Humidity 10%
Rainfall 0.00 in
Snow Depth Not available.
UV 7 out of 12
Pollen 9.50 out of 12
Air Quality Not available.
Flu Activity Not available.
METAR KDGW 012053Z AUTO 26016G21KT 10SM CLR 33/M03 A2997 RMK AO2 SLP082 T03281028 58014
Pressure 29.78 in
Visibility 10.0 miles
Clouds Clear
Dew Point 27 °F
Humidity 10%
Rainfall 0.00 in
Snow Depth Not available.
UV 7 out of 12
Pollen 9.50 out of 12
Air Quality Not available.
Flu Activity Not available.
METAR KDGW 012053Z AUTO 26016G21KT 10SM CLR 33/M03 A2997 RMK AO2 SLP082 T03281028 58014

10-Day Weather Forecast

×

Almanac

Astronomy

Sep. 01, 2015 Rise Set
Actual Time
Civil Twilight
Nautical Twilight
Astronomical Twilight
Moon
Length of Visible Light
Length of Day
Tomorrow will be .
, % of the Moon is Illuminated

Today's Extremes

State Highs State Lows

Community

WunderPhotos

Upload Photos

1,851,628 photos uploaded!

WunderBlogs® & News

Nearby

Air Quality

  Air Quality AQ Index Pollutant
Not available.

Snow Depth

Station Depth Elevation

Earthquake Activity

City Distance Mag. Time & Date
Minimum magnitude displayed is 2.5.

Coastal Water Temperatures

Place Temperature

Stations

Nearby Weather Stations

Station Location Temp. Windchill Dew Point Humidity Wind Precip. Elev Updated Type
                   
Fire Weather Warning
Statement as of 2:31 PM MDT on September 01, 2015

... Red flag warning in effect until 8 PM MDT this evening for
gusty winds and low humidities for fire weather zone 301...
... Red flag warning in effect from noon to 7 PM MDT Wednesday for
gusty winds and low humidities for fire weather zone 301...

The National Weather Service in Cheyenne has issued a red flag
warning... which is in effect until 8 PM MDT this evening. A red
flag warning has also been issued from noon to 7 PM MDT
Wednesday. The Fire Weather Watch is no longer in effect.

* Wind... west to southwest winds of 15 to 25 mph sustained with
gusts to 35 mph.

* Humidity... late morning to afternoon humidities falling into
the upper single digits to lower teens.

* Impacts... any fires that develop will likely spread rapidly.
Outdoor burning is not recommended Wednesday.

Precautionary/preparedness actions...

A red flag warning means that critical fire weather conditions
are either occurring now... or will shortly. A combination of
strong winds... low relative humidity... and warm temperatures may
lead to extreme fire behavior.